sensor_id;sensor_type;location;lat;lon;timestamp;P1;durP1;ratioP1;P2;durP2;ratioP2
65234;SDS011;51820;48.374;10.930;2023-10-19T00:01:15;22.92;;;12.63;;
65234;SDS011;51820;48.374;10.930;2023-10-19T00:03:46;23.73;;;12.63;;
65234;SDS011;51820;48.374;10.930;2023-10-19T00:06:16;22.15;;;13.18;;
65234;SDS011;51820;48.374;10.930;2023-10-19T00:08:45;22.73;;;12.73;;
65234;SDS011;51820;48.374;10.930;2023-10-19T00:11:14;22.98;;;13.00;;
65234;SDS011;51820;48.374;10.930;2023-10-19T00:13:48;25.58;;;13.82;;
65234;SDS011;51820;48.374;10.930;2023-10-19T00:16:17;28.93;;;14.23;;
65234;SDS011;51820;48.374;10.930;2023-10-19T00:18:50;33.85;;;17.70;;
65234;SDS011;51820;48.374;10.930;2023-10-19T00:21:19;37.75;;;20.05;;
65234;SDS011;51820;48.374;10.930;2023-10-19T00:23:50;40.95;;;22.00;;
65234;SDS011;51820;48.374;10.930;2023-10-19T00:26:23;37.70;;;23.00;;
65234;SDS011;51820;48.374;10.930;2023-10-19T00:28:58;41.90;;;23.63;;
65234;SDS011;51820;48.374;10.930;2023-10-19T00:31:40;43.08;;;24.00;;
65234;SDS011;51820;48.374;10.930;2023-10-19T00:34:12;42.08;;;23.35;;
65234;SDS011;51820;48.374;10.930;2023-10-19T00:36:40;39.00;;;22.60;;
65234;SDS011;51820;48.374;10.930;2023-10-19T00:39:09;38.80;;;22.67;;
65234;SDS011;51820;48.374;10.930;2023-10-19T00:41:43;43.23;;;22.57;;
65234;SDS011;51820;48.374;10.930;2023-10-19T00:44:14;35.58;;;21.38;;
65234;SDS011;51820;48.374;10.930;2023-10-19T00:46:44;36.53;;;20.52;;
65234;SDS011;51820;48.374;10.930;2023-10-19T00:49:18;39.30;;;21.98;;
65234;SDS011;51820;48.374;10.930;2023-10-19T00:51:51;37.33;;;21.75;;
65234;SDS011;51820;48.374;10.930;2023-10-19T00:54:29;37.73;;;21.27;;
65234;SDS011;51820;48.374;10.930;2023-10-19T00:57:02;38.10;;;20.75;;
65234;SDS011;51820;48.374;10.930;2023-10-19T00:59:34;34.33;;;19.30;;
65234;SDS011;51820;48.374;10.930;2023-10-19T01:02:09;35.67;;;19.13;;
65234;SDS011;51820;48.374;10.930;2023-10-19T01:04:46;32.80;;;18.85;;
65234;SDS011;51820;48.374;10.930;2023-10-19T01:07:22;32.70;;;18.03;;
65234;SDS011;51820;48.374;10.930;2023-10-19T01:09:56;32.80;;;18.65;;
65234;SDS011;51820;48.374;10.930;2023-10-19T01:12:26;33.05;;;17.33;;
65234;SDS011;51820;48.374;10.930;2023-10-19T01:15:05;34.35;;;17.88;;
65234;SDS011;51820;48.374;10.930;2023-10-19T01:17:39;33.17;;;19.00;;
65234;SDS011;51820;48.374;10.930;2023-10-19T01:20:12;31.43;;;18.83;;
65234;SDS011;51820;48.374;10.930;2023-10-19T01:22:51;32.72;;;19.52;;
65234;SDS011;51820;48.374;10.930;2023-10-19T01:25:32;34.50;;;18.95;;
65234;SDS011;51820;48.374;10.930;2023-10-19T01:28:08;41.30;;;18.60;;
65234;SDS011;51820;48.374;10.930;2023-10-19T01:30:43;32.45;;;18.70;;
65234;SDS011;51820;48.374;10.930;2023-10-19T01:33:12;31.77;;;18.10;;
65234;SDS011;51820;48.374;10.930;2023-10-19T01:35:42;38.55;;;19.42;;
65234;SDS011;51820;48.374;10.930;2023-10-19T01:38:32;31.23;;;18.55;;
65234;SDS011;51820;48.374;10.930;2023-10-19T01:41:01;34.72;;;18.65;;
65234;SDS011;51820;48.374;10.930;2023-10-19T01:43:33;31.17;;;18.70;;
65234;SDS011;51820;48.374;10.930;2023-10-19T01:46:03;36.30;;;19.67;;
65234;SDS011;51820;48.374;10.930;2023-10-19T01:48:31;35.70;;;19.70;;
65234;SDS011;51820;48.374;10.930;2023-10-19T01:51:01;36.50;;;19.75;;
65234;SDS011;51820;48.374;10.930;2023-10-19T01:53:32;33.67;;;19.50;;
65234;SDS011;51820;48.374;10.930;2023-10-19T01:56:02;36.55;;;19.92;;
65234;SDS011;51820;48.374;10.930;2023-10-19T01:58:32;34.33;;;18.87;;
65234;SDS011;51820;48.374;10.930;2023-10-19T02:01:03;37.47;;;19.90;;
65234;SDS011;51820;48.374;10.930;2023-10-19T02:03:41;37.40;;;19.38;;
65234;SDS011;51820;48.374;10.930;2023-10-19T02:06:09;33.65;;;19.63;;
65234;SDS011;51820;48.374;10.930;2023-10-19T02:08:48;38.28;;;21.35;;
65234;SDS011;51820;48.374;10.930;2023-10-19T02:11:18;38.30;;;21.50;;
65234;SDS011;51820;48.374;10.930;2023-10-19T02:13:48;37.03;;;19.88;;
65234;SDS011;51820;48.374;10.930;2023-10-19T02:16:17;39.28;;;21.23;;
65234;SDS011;51820;48.374;10.930;2023-10-19T02:18:48;35.60;;;21.10;;
65234;SDS011;51820;48.374;10.930;2023-10-19T02:21:17;36.08;;;21.65;;
65234;SDS011;51820;48.374;10.930;2023-10-19T02:23:50;40.37;;;21.13;;
65234;SDS011;51820;48.374;10.930;2023-10-19T02:26:18;37.78;;;21.50;;
65234;SDS011;51820;48.374;10.930;2023-10-19T02:28:46;39.30;;;20.83;;
65234;SDS011;51820;48.374;10.930;2023-10-19T02:31:17;36.83;;;21.98;;
65234;SDS011;51820;48.374;10.930;2023-10-19T02:33:47;38.13;;;21.45;;
65234;SDS011;51820;48.374;10.930;2023-10-19T02:36:18;39.70;;;22.47;;
65234;SDS011;51820;48.374;10.930;2023-10-19T02:38:47;39.03;;;22.40;;
65234;SDS011;51820;48.374;10.930;2023-10-19T02:41:20;38.92;;;21.13;;
65234;SDS011;51820;48.374;10.930;2023-10-19T02:43:47;39.30;;;21.75;;
65234;SDS011;51820;48.374;10.930;2023-10-19T02:46:27;42.67;;;22.50;;
65234;SDS011;51820;48.374;10.930;2023-10-19T02:48:55;40.57;;;21.87;;
65234;SDS011;51820;48.374;10.930;2023-10-19T02:51:24;39.88;;;22.70;;
65234;SDS011;51820;48.374;10.930;2023-10-19T02:53:52;38.88;;;21.58;;
65234;SDS011;51820;48.374;10.930;2023-10-19T02:56:22;37.50;;;21.75;;
65234;SDS011;51820;48.374;10.930;2023-10-19T02:58:51;36.78;;;20.95;;
65234;SDS011;51820;48.374;10.930;2023-10-19T03:01:20;37.20;;;20.77;;
65234;SDS011;51820;48.374;10.930;2023-10-19T03:03:55;36.08;;;20.88;;
65234;SDS011;51820;48.374;10.930;2023-10-19T03:06:26;33.42;;;19.42;;
65234;SDS011;51820;48.374;10.930;2023-10-19T03:08:58;35.30;;;19.52;;
65234;SDS011;51820;48.374;10.930;2023-10-19T03:11:29;36.17;;;19.50;;
65234;SDS011;51820;48.374;10.930;2023-10-19T03:13:59;34.90;;;18.33;;
65234;SDS011;51820;48.374;10.930;2023-10-19T03:16:26;34.40;;;17.58;;
65234;SDS011;51820;48.374;10.930;2023-10-19T03:18:57;32.13;;;17.17;;
65234;SDS011;51820;48.374;10.930;2023-10-19T03:21:25;27.75;;;15.93;;
65234;SDS011;51820;48.374;10.930;2023-10-19T03:23:54;32.92;;;16.08;;
65234;SDS011;51820;48.374;10.930;2023-10-19T03:26:29;26.70;;;14.80;;
65234;SDS011;51820;48.374;10.930;2023-10-19T03:29:03;32.10;;;15.38;;
65234;SDS011;51820;48.374;10.930;2023-10-19T03:31:34;23.38;;;13.95;;
65234;SDS011;51820;48.374;10.930;2023-10-19T03:34:10;26.02;;;14.52;;
65234;SDS011;51820;48.374;10.930;2023-10-19T03:36:39;25.77;;;14.68;;
65234;SDS011;51820;48.374;10.930;2023-10-19T03:39:08;28.53;;;14.30;;
65234;SDS011;51820;48.374;10.930;2023-10-19T03:41:43;24.30;;;13.38;;
65234;SDS011;51820;48.374;10.930;2023-10-19T03:44:12;24.42;;;13.15;;
65234;SDS011;51820;48.374;10.930;2023-10-19T03:46:45;28.55;;;12.95;;
65234;SDS011;51820;48.374;10.930;2023-10-19T03:49:26;22.90;;;11.60;;
65234;SDS011;51820;48.374;10.930;2023-10-19T03:52:01;24.63;;;13.27;;
65234;SDS011;51820;48.374;10.930;2023-10-19T03:54:47;25.08;;;12.75;;
65234;SDS011;51820;48.374;10.930;2023-10-19T03:57:18;23.88;;;12.20;;
65234;SDS011;51820;48.374;10.930;2023-10-19T03:59:51;20.75;;;11.13;;
65234;SDS011;51820;48.374;10.930;2023-10-19T04:02:23;24.17;;;12.55;;
65234;SDS011;51820;48.374;10.930;2023-10-19T04:04:55;22.37;;;12.00;;
65234;SDS011;51820;48.374;10.930;2023-10-19T04:07:24;22.27;;;11.85;;
65234;SDS011;51820;48.374;10.930;2023-10-19T04:09:54;21.08;;;11.45;;
65234;SDS011;51820;48.374;10.930;2023-10-19T04:12:38;21.73;;;12.27;;
65234;SDS011;51820;48.374;10.930;2023-10-19T04:15:09;22.42;;;11.70;;
65234;SDS011;51820;48.374;10.930;2023-10-19T04:17:40;22.20;;;12.50;;
65234;SDS011;51820;48.374;10.930;2023-10-19T04:20:09;19.25;;;11.07;;
65234;SDS011;51820;48.374;10.930;2023-10-19T04:22:54;20.90;;;11.77;;
65234;SDS011;51820;48.374;10.930;2023-10-19T04:25:24;20.27;;;11.13;;
65234;SDS011;51820;48.374;10.930;2023-10-19T04:27:55;21.42;;;11.00;;
65234;SDS011;51820;48.374;10.930;2023-10-19T04:30:24;22.40;;;10.70;;
65234;SDS011;51820;48.374;10.930;2023-10-19T04:32:54;21.75;;;10.60;;
65234;SDS011;51820;48.374;10.930;2023-10-19T04:35:25;23.40;;;11.45;;
65234;SDS011;51820;48.374;10.930;2023-10-19T04:37:57;18.83;;;11.07;;
65234;SDS011;51820;48.374;10.930;2023-10-19T04:40:26;19.15;;;10.77;;
65234;SDS011;51820;48.374;10.930;2023-10-19T04:42:56;23.20;;;10.67;;
65234;SDS011;51820;48.374;10.930;2023-10-19T04:45:26;21.15;;;11.48;;
65234;SDS011;51820;48.374;10.930;2023-10-19T04:47:56;20.13;;;11.35;;
65234;SDS011;51820;48.374;10.930;2023-10-19T04:50:24;19.67;;;10.95;;
65234;SDS011;51820;48.374;10.930;2023-10-19T04:52:53;21.38;;;10.80;;
65234;SDS011;51820;48.374;10.930;2023-10-19T04:55:22;20.10;;;10.90;;
65234;SDS011;51820;48.374;10.930;2023-10-19T04:57:50;19.17;;;10.63;;
65234;SDS011;51820;48.374;10.930;2023-10-19T05:00:20;18.90;;;10.85;;
65234;SDS011;51820;48.374;10.930;2023-10-19T05:02:48;18.10;;;10.45;;
65234;SDS011;51820;48.374;10.930;2023-10-19T05:05:19;20.60;;;11.00;;
65234;SDS011;51820;48.374;10.930;2023-10-19T05:07:47;21.00;;;11.10;;
65234;SDS011;51820;48.374;10.930;2023-10-19T05:10:16;25.60;;;14.55;;
65234;SDS011;51820;48.374;10.930;2023-10-19T05:12:46;64.38;;;36.13;;
65234;SDS011;51820;48.374;10.930;2023-10-19T05:15:15;80.13;;;42.60;;
65234;SDS011;51820;48.374;10.930;2023-10-19T05:17:46;29.98;;;16.85;;
65234;SDS011;51820;48.374;10.930;2023-10-19T05:20:14;61.97;;;32.27;;
65234;SDS011;51820;48.374;10.930;2023-10-19T05:22:42;47.85;;;24.90;;
65234;SDS011;51820;48.374;10.930;2023-10-19T05:25:11;30.67;;;17.20;;
65234;SDS011;51820;48.374;10.930;2023-10-19T05:27:40;28.52;;;16.55;;
65234;SDS011;51820;48.374;10.930;2023-10-19T05:30:12;29.63;;;16.48;;
65234;SDS011;51820;48.374;10.930;2023-10-19T05:32:41;24.03;;;14.20;;
65234;SDS011;51820;48.374;10.930;2023-10-19T05:35:11;61.13;;;34.55;;
65234;SDS011;51820;48.374;10.930;2023-10-19T05:37:49;39.05;;;21.77;;
65234;SDS011;51820;48.374;10.930;2023-10-19T05:40:17;22.77;;;12.55;;
65234;SDS011;51820;48.374;10.930;2023-10-19T05:42:46;19.92;;;11.20;;
65234;SDS011;51820;48.374;10.930;2023-10-19T05:45:14;18.60;;;10.90;;
65234;SDS011;51820;48.374;10.930;2023-10-19T05:47:43;20.42;;;10.85;;
65234;SDS011;51820;48.374;10.930;2023-10-19T05:50:13;18.38;;;10.35;;
65234;SDS011;51820;48.374;10.930;2023-10-19T05:52:42;18.23;;;10.30;;
65234;SDS011;51820;48.374;10.930;2023-10-19T05:55:10;23.13;;;11.00;;
65234;SDS011;51820;48.374;10.930;2023-10-19T05:57:39;17.63;;;9.93;;
65234;SDS011;51820;48.374;10.930;2023-10-19T06:00:08;20.20;;;10.10;;
65234;SDS011;51820;48.374;10.930;2023-10-19T06:02:41;20.85;;;10.48;;
65234;SDS011;51820;48.374;10.930;2023-10-19T06:05:13;19.85;;;10.60;;
65234;SDS011;51820;48.374;10.930;2023-10-19T06:07:43;17.85;;;10.25;;
65234;SDS011;51820;48.374;10.930;2023-10-19T06:10:12;18.37;;;10.43;;
65234;SDS011;51820;48.374;10.930;2023-10-19T06:12:44;17.77;;;9.65;;
65234;SDS011;51820;48.374;10.930;2023-10-19T06:15:13;18.48;;;10.20;;
65234;SDS011;51820;48.374;10.930;2023-10-19T06:17:47;17.48;;;9.88;;
65234;SDS011;51820;48.374;10.930;2023-10-19T06:20:18;16.52;;;9.70;;
65234;SDS011;51820;48.374;10.930;2023-10-19T06:22:53;17.03;;;10.00;;
65234;SDS011;51820;48.374;10.930;2023-10-19T06:25:24;16.58;;;9.32;;
65234;SDS011;51820;48.374;10.930;2023-10-19T06:27:55;17.60;;;10.15;;
65234;SDS011;51820;48.374;10.930;2023-10-19T06:30:30;18.10;;;9.95;;
65234;SDS011;51820;48.374;10.930;2023-10-19T06:32:59;19.55;;;10.02;;
65234;SDS011;51820;48.374;10.930;2023-10-19T06:35:31;19.63;;;9.97;;
65234;SDS011;51820;48.374;10.930;2023-10-19T06:38:00;19.75;;;10.15;;
65234;SDS011;51820;48.374;10.930;2023-10-19T06:40:30;17.55;;;9.75;;
65234;SDS011;51820;48.374;10.930;2023-10-19T06:42:59;18.50;;;10.00;;
65234;SDS011;51820;48.374;10.930;2023-10-19T06:45:29;16.10;;;9.07;;
65234;SDS011;51820;48.374;10.930;2023-10-19T06:47:58;16.37;;;9.90;;
65234;SDS011;51820;48.374;10.930;2023-10-19T06:50:32;17.05;;;9.90;;
65234;SDS011;51820;48.374;10.930;2023-10-19T06:53:09;18.02;;;9.35;;
65234;SDS011;51820;48.374;10.930;2023-10-19T06:55:37;15.13;;;9.65;;
65234;SDS011;51820;48.374;10.930;2023-10-19T06:58:07;16.27;;;9.35;;
65234;SDS011;51820;48.374;10.930;2023-10-19T07:00:38;18.43;;;9.67;;
65234;SDS011;51820;48.374;10.930;2023-10-19T07:03:17;17.25;;;8.82;;
65234;SDS011;51820;48.374;10.930;2023-10-19T07:05:47;14.82;;;8.80;;
65234;SDS011;51820;48.374;10.930;2023-10-19T07:08:16;25.17;;;15.32;;
65234;SDS011;51820;48.374;10.930;2023-10-19T07:10:45;17.98;;;9.90;;
65234;SDS011;51820;48.374;10.930;2023-10-19T07:13:15;16.67;;;9.63;;
65234;SDS011;51820;48.374;10.930;2023-10-19T07:15:47;19.25;;;10.90;;
65234;SDS011;51820;48.374;10.930;2023-10-19T07:18:16;19.48;;;9.85;;
65234;SDS011;51820;48.374;10.930;2023-10-19T07:20:46;15.63;;;9.00;;
65234;SDS011;51820;48.374;10.930;2023-10-19T07:23:16;16.02;;;8.93;;
65234;SDS011;51820;48.374;10.930;2023-10-19T07:25:53;15.60;;;8.47;;
65234;SDS011;51820;48.374;10.930;2023-10-19T07:28:22;16.08;;;8.50;;
65234;SDS011;51820;48.374;10.930;2023-10-19T07:30:53;17.52;;;8.70;;
65234;SDS011;51820;48.374;10.930;2023-10-19T07:33:23;15.05;;;8.48;;
65234;SDS011;51820;48.374;10.930;2023-10-19T07:35:57;15.93;;;8.35;;
65234;SDS011;51820;48.374;10.930;2023-10-19T07:38:26;15.60;;;8.40;;
65234;SDS011;51820;48.374;10.930;2023-10-19T07:40:57;17.45;;;8.30;;
65234;SDS011;51820;48.374;10.930;2023-10-19T07:43:29;12.43;;;7.75;;
65234;SDS011;51820;48.374;10.930;2023-10-19T07:45:57;11.32;;;7.03;;
65234;SDS011;51820;48.374;10.930;2023-10-19T07:48:26;14.38;;;7.43;;
65234;SDS011;51820;48.374;10.930;2023-10-19T07:50:56;12.67;;;6.90;;
65234;SDS011;51820;48.374;10.930;2023-10-19T07:53:25;13.82;;;7.45;;
65234;SDS011;51820;48.374;10.930;2023-10-19T07:55:54;15.45;;;7.85;;
65234;SDS011;51820;48.374;10.930;2023-10-19T07:58:23;14.80;;;7.88;;
65234;SDS011;51820;48.374;10.930;2023-10-19T08:00:53;14.43;;;7.63;;
65234;SDS011;51820;48.374;10.930;2023-10-19T08:03:23;12.60;;;6.90;;
65234;SDS011;51820;48.374;10.930;2023-10-19T08:05:52;14.88;;;7.28;;
65234;SDS011;51820;48.374;10.930;2023-10-19T08:08:22;14.32;;;8.02;;
65234;SDS011;51820;48.374;10.930;2023-10-19T08:10:51;13.75;;;7.43;;
65234;SDS011;51820;48.374;10.930;2023-10-19T08:13:20;13.23;;;7.30;;
65234;SDS011;51820;48.374;10.930;2023-10-19T08:15:52;14.90;;;7.43;;
65234;SDS011;51820;48.374;10.930;2023-10-19T08:18:21;14.73;;;7.55;;
65234;SDS011;51820;48.374;10.930;2023-10-19T08:20:51;12.40;;;7.47;;
65234;SDS011;51820;48.374;10.930;2023-10-19T08:23:19;16.17;;;8.13;;
65234;SDS011;51820;48.374;10.930;2023-10-19T08:25:51;14.10;;;7.60;;
65234;SDS011;51820;48.374;10.930;2023-10-19T08:28:23;16.57;;;8.00;;
65234;SDS011;51820;48.374;10.930;2023-10-19T08:30:52;11.05;;;7.18;;
65234;SDS011;51820;48.374;10.930;2023-10-19T08:33:28;12.43;;;7.05;;
65234;SDS011;51820;48.374;10.930;2023-10-19T08:36:03;13.93;;;7.63;;
65234;SDS011;51820;48.374;10.930;2023-10-19T08:38:35;12.90;;;7.70;;
65234;SDS011;51820;48.374;10.930;2023-10-19T08:41:05;13.93;;;7.50;;
65234;SDS011;51820;48.374;10.930;2023-10-19T08:43:37;14.98;;;7.53;;
65234;SDS011;51820;48.374;10.930;2023-10-19T08:46:06;15.20;;;7.20;;
65234;SDS011;51820;48.374;10.930;2023-10-19T08:48:35;13.55;;;7.43;;
65234;SDS011;51820;48.374;10.930;2023-10-19T08:51:09;14.23;;;7.85;;
65234;SDS011;51820;48.374;10.930;2023-10-19T08:53:42;14.30;;;7.43;;
65234;SDS011;51820;48.374;10.930;2023-10-19T08:56:21;12.35;;;7.35;;
65234;SDS011;51820;48.374;10.930;2023-10-19T08:58:57;14.20;;;7.50;;
65234;SDS011;51820;48.374;10.930;2023-10-19T09:01:33;13.20;;;7.15;;
65234;SDS011;51820;48.374;10.930;2023-10-19T09:04:03;15.38;;;7.30;;
65234;SDS011;51820;48.374;10.930;2023-10-19T09:06:35;12.07;;;7.40;;
65234;SDS011;51820;48.374;10.930;2023-10-19T09:09:08;13.23;;;6.80;;
65234;SDS011;51820;48.374;10.930;2023-10-19T09:11:47;17.05;;;7.80;;
65234;SDS011;51820;48.374;10.930;2023-10-19T09:14:17;12.95;;;7.60;;
65234;SDS011;51820;48.374;10.930;2023-10-19T09:17:06;16.77;;;7.10;;
65234;SDS011;51820;48.374;10.930;2023-10-19T09:19:43;13.00;;;7.23;;
65234;SDS011;51820;48.374;10.930;2023-10-19T09:22:31;12.85;;;7.40;;
65234;SDS011;51820;48.374;10.930;2023-10-19T09:25:21;15.10;;;8.02;;
65234;SDS011;51820;48.374;10.930;2023-10-19T09:31:20;20.95;;;8.18;;
65234;SDS011;51820;48.374;10.930;2023-10-19T09:33:51;13.03;;;7.63;;
65234;SDS011;51820;48.374;10.930;2023-10-19T09:36:55;15.57;;;8.20;;
65234;SDS011;51820;48.374;10.930;2023-10-19T09:39:48;14.57;;;7.90;;
65234;SDS011;51820;48.374;10.930;2023-10-19T09:42:19;14.13;;;7.88;;
65234;SDS011;51820;48.374;10.930;2023-10-19T09:45:31;12.90;;;7.78;;
65234;SDS011;51820;48.374;10.930;2023-10-19T09:48:19;13.90;;;7.83;;
65234;SDS011;51820;48.374;10.930;2023-10-19T09:50:50;18.42;;;8.52;;
65234;SDS011;51820;48.374;10.930;2023-10-19T09:53:22;15.68;;;8.52;;
65234;SDS011;51820;48.374;10.930;2023-10-19T09:55:53;18.98;;;9.70;;
65234;SDS011;51820;48.374;10.930;2023-10-19T09:58:24;17.30;;;9.80;;
65234;SDS011;51820;48.374;10.930;2023-10-19T10:01:01;15.23;;;9.10;;
65234;SDS011;51820;48.374;10.930;2023-10-19T10:03:41;27.85;;;15.52;;
65234;SDS011;51820;48.374;10.930;2023-10-19T10:06:10;25.65;;;14.18;;
65234;SDS011;51820;48.374;10.930;2023-10-19T10:08:43;21.00;;;11.60;;
65234;SDS011;51820;48.374;10.930;2023-10-19T10:11:27;25.58;;;12.52;;
65234;SDS011;51820;48.374;10.930;2023-10-19T10:14:02;19.63;;;9.80;;
65234;SDS011;51820;48.374;10.930;2023-10-19T10:17:00;17.10;;;9.38;;
65234;SDS011;51820;48.374;10.930;2023-10-19T10:19:29;36.08;;;21.30;;
65234;SDS011;51820;48.374;10.930;2023-10-19T10:22:04;54.60;;;31.50;;
65234;SDS011;51820;48.374;10.930;2023-10-19T10:24:39;33.35;;;18.23;;
65234;SDS011;51820;48.374;10.930;2023-10-19T10:27:08;22.23;;;11.43;;
65234;SDS011;51820;48.374;10.930;2023-10-19T10:29:53;24.20;;;11.45;;
65234;SDS011;51820;48.374;10.930;2023-10-19T10:38:20;15.75;;;9.95;;
65234;SDS011;51820;48.374;10.930;2023-10-19T10:40:49;23.63;;;10.73;;
65234;SDS011;51820;48.374;10.930;2023-10-19T10:43:18;20.20;;;10.55;;
65234;SDS011;51820;48.374;10.930;2023-10-19T10:45:50;20.65;;;10.65;;
65234;SDS011;51820;48.374;10.930;2023-10-19T10:48:20;17.85;;;10.30;;
65234;SDS011;51820;48.374;10.930;2023-10-19T10:50:49;21.90;;;11.30;;
65234;SDS011;51820;48.374;10.930;2023-10-19T10:53:25;20.37;;;10.30;;
65234;SDS011;51820;48.374;10.930;2023-10-19T10:55:54;22.00;;;9.50;;
65234;SDS011;51820;48.374;10.930;2023-10-19T10:58:24;15.02;;;8.20;;
65234;SDS011;51820;48.374;10.930;2023-10-19T11:00:52;14.93;;;8.32;;
65234;SDS011;51820;48.374;10.930;2023-10-19T11:03:22;16.83;;;8.55;;
65234;SDS011;51820;48.374;10.930;2023-10-19T11:06:20;13.67;;;7.63;;
65234;SDS011;51820;48.374;10.930;2023-10-19T11:08:50;18.27;;;8.70;;
65234;SDS011;51820;48.374;10.930;2023-10-19T11:11:19;14.75;;;8.60;;
65234;SDS011;51820;48.374;10.930;2023-10-19T11:13:48;15.10;;;8.70;;
65234;SDS011;51820;48.374;10.930;2023-10-19T11:16:21;15.18;;;8.68;;
65234;SDS011;51820;48.374;10.930;2023-10-19T11:18:51;14.43;;;8.37;;
65234;SDS011;51820;48.374;10.930;2023-10-19T11:21:20;19.23;;;8.07;;
65234;SDS011;51820;48.374;10.930;2023-10-19T11:23:50;14.70;;;8.23;;
65234;SDS011;51820;48.374;10.930;2023-10-19T11:26:21;18.33;;;8.27;;
65234;SDS011;51820;48.374;10.930;2023-10-19T11:28:56;18.70;;;10.13;;
65234;SDS011;51820;48.374;10.930;2023-10-19T11:31:29;17.70;;;9.00;;
65234;SDS011;51820;48.374;10.930;2023-10-19T11:34:18;18.83;;;8.98;;
65234;SDS011;51820;48.374;10.930;2023-10-19T11:36:56;16.38;;;8.98;;
65234;SDS011;51820;48.374;10.930;2023-10-19T11:39:26;15.73;;;8.70;;
65234;SDS011;51820;48.374;10.930;2023-10-19T11:41:59;13.50;;;8.40;;
65234;SDS011;51820;48.374;10.930;2023-10-19T11:44:33;15.67;;;9.40;;
65234;SDS011;51820;48.374;10.930;2023-10-19T11:47:05;15.35;;;8.52;;
65234;SDS011;51820;48.374;10.930;2023-10-19T11:49:40;15.27;;;9.30;;
65234;SDS011;51820;48.374;10.930;2023-10-19T11:52:09;14.45;;;8.32;;
65234;SDS011;51820;48.374;10.930;2023-10-19T11:54:38;16.48;;;8.82;;
65234;SDS011;51820;48.374;10.930;2023-10-19T11:57:08;15.47;;;8.57;;
65234;SDS011;51820;48.374;10.930;2023-10-19T11:59:38;14.27;;;8.18;;
65234;SDS011;51820;48.374;10.930;2023-10-19T12:02:07;13.30;;;7.30;;
65234;SDS011;51820;48.374;10.930;2023-10-19T12:04:36;55.30;;;29.45;;
65234;SDS011;51820;48.374;10.930;2023-10-19T12:07:06;21.10;;;11.27;;
65234;SDS011;51820;48.374;10.930;2023-10-19T12:09:36;14.90;;;7.67;;
65234;SDS011;51820;48.374;10.930;2023-10-19T12:12:29;13.35;;;7.88;;
65234;SDS011;51820;48.374;10.930;2023-10-19T12:14:59;13.68;;;7.55;;
65234;SDS011;51820;48.374;10.930;2023-10-19T12:17:29;13.98;;;7.63;;
65234;SDS011;51820;48.374;10.930;2023-10-19T12:19:57;12.00;;;6.53;;
65234;SDS011;51820;48.374;10.930;2023-10-19T12:22:30;12.43;;;6.43;;
65234;SDS011;51820;48.374;10.930;2023-10-19T12:25:08;12.75;;;6.35;;
65234;SDS011;51820;48.374;10.930;2023-10-19T12:27:37;10.68;;;5.55;;
65234;SDS011;51820;48.374;10.930;2023-10-19T12:30:32;10.00;;;4.95;;
65234;SDS011;51820;48.374;10.930;2023-10-19T12:33:04;10.93;;;4.72;;
65234;SDS011;51820;48.374;10.930;2023-10-19T12:35:38;10.17;;;4.80;;
65234;SDS011;51820;48.374;10.930;2023-10-19T12:38:15;10.25;;;5.18;;
65234;SDS011;51820;48.374;10.930;2023-10-19T12:40:44;9.25;;;4.93;;
65234;SDS011;51820;48.374;10.930;2023-10-19T12:43:16;9.52;;;4.78;;
65234;SDS011;51820;48.374;10.930;2023-10-19T12:45:46;10.13;;;4.93;;
65234;SDS011;51820;48.374;10.930;2023-10-19T12:48:20;10.37;;;5.33;;
65234;SDS011;51820;48.374;10.930;2023-10-19T12:50:51;8.98;;;5.00;;
65234;SDS011;51820;48.374;10.930;2023-10-19T12:53:22;9.52;;;4.00;;
65234;SDS011;51820;48.374;10.930;2023-10-19T12:55:51;7.18;;;3.60;;
65234;SDS011;51820;48.374;10.930;2023-10-19T12:58:20;8.85;;;3.75;;
65234;SDS011;51820;48.374;10.930;2023-10-19T13:00:48;8.63;;;4.07;;
65234;SDS011;51820;48.374;10.930;2023-10-19T13:03:18;8.88;;;4.20;;
65234;SDS011;51820;48.374;10.930;2023-10-19T13:05:48;9.93;;;4.30;;
65234;SDS011;51820;48.374;10.930;2023-10-19T13:08:24;9.65;;;4.15;;
65234;SDS011;51820;48.374;10.930;2023-10-19T13:10:53;8.30;;;3.95;;
65234;SDS011;51820;48.374;10.930;2023-10-19T13:13:39;10.63;;;5.17;;
65234;SDS011;51820;48.374;10.930;2023-10-19T13:16:07;15.18;;;8.05;;
65234;SDS011;51820;48.374;10.930;2023-10-19T13:18:36;13.15;;;6.88;;
65234;SDS011;51820;48.374;10.930;2023-10-19T13:21:08;11.35;;;5.13;;
65234;SDS011;51820;48.374;10.930;2023-10-19T13:23:52;7.75;;;3.97;;
65234;SDS011;51820;48.374;10.930;2023-10-19T13:26:22;7.67;;;3.77;;
65234;SDS011;51820;48.374;10.930;2023-10-19T13:28:52;8.82;;;4.30;;
65234;SDS011;51820;48.374;10.930;2023-10-19T13:31:22;10.05;;;4.15;;
65234;SDS011;51820;48.374;10.930;2023-10-19T13:33:53;9.75;;;4.28;;
65234;SDS011;51820;48.374;10.930;2023-10-19T13:36:21;12.88;;;4.57;;
65234;SDS011;51820;48.374;10.930;2023-10-19T13:38:51;8.83;;;4.50;;
65234;SDS011;51820;48.374;10.930;2023-10-19T13:41:20;10.85;;;4.35;;
65234;SDS011;51820;48.374;10.930;2023-10-19T13:43:48;10.48;;;4.65;;
65234;SDS011;51820;48.374;10.930;2023-10-19T13:46:17;10.55;;;4.65;;
65234;SDS011;51820;48.374;10.930;2023-10-19T13:48:46;9.55;;;3.75;;
65234;SDS011;51820;48.374;10.930;2023-10-19T13:51:16;11.90;;;4.57;;
65234;SDS011;51820;48.374;10.930;2023-10-19T13:53:45;8.32;;;4.18;;
65234;SDS011;51820;48.374;10.930;2023-10-19T13:56:17;12.48;;;6.22;;
65234;SDS011;51820;48.374;10.930;2023-10-19T13:58:46;10.95;;;4.57;;
65234;SDS011;51820;48.374;10.930;2023-10-19T14:01:14;8.40;;;4.30;;
65234;SDS011;51820;48.374;10.930;2023-10-19T14:03:44;11.17;;;5.33;;
65234;SDS011;51820;48.374;10.930;2023-10-19T14:06:13;121.20;;;71.18;;
65234;SDS011;51820;48.374;10.930;2023-10-19T14:08:43;87.18;;;52.38;;
65234;SDS011;51820;48.374;10.930;2023-10-19T14:11:11;36.97;;;21.38;;
65234;SDS011;51820;48.374;10.930;2023-10-19T14:13:42;16.35;;;9.25;;
65234;SDS011;51820;48.374;10.930;2023-10-19T14:16:11;14.20;;;7.70;;
65234;SDS011;51820;48.374;10.930;2023-10-19T14:18:40;13.43;;;6.68;;
65234;SDS011;51820;48.374;10.930;2023-10-19T14:21:10;12.90;;;6.50;;
65234;SDS011;51820;48.374;10.930;2023-10-19T14:23:40;12.77;;;6.63;;
65234;SDS011;51820;48.374;10.930;2023-10-19T14:26:10;12.65;;;6.60;;
65234;SDS011;51820;48.374;10.930;2023-10-19T14:28:38;11.50;;;5.70;;
65234;SDS011;51820;48.374;10.930;2023-10-19T14:31:09;11.05;;;6.40;;
65234;SDS011;51820;48.374;10.930;2023-10-19T14:33:39;11.75;;;6.45;;
65234;SDS011;51820;48.374;10.930;2023-10-19T14:36:08;13.65;;;7.70;;
65234;SDS011;51820;48.374;10.930;2023-10-19T14:38:38;14.25;;;6.57;;
65234;SDS011;51820;48.374;10.930;2023-10-19T14:41:06;13.83;;;6.70;;
65234;SDS011;51820;48.374;10.930;2023-10-19T14:43:36;10.05;;;6.20;;
65234;SDS011;51820;48.374;10.930;2023-10-19T14:46:05;11.48;;;6.15;;
65234;SDS011;51820;48.374;10.930;2023-10-19T14:48:35;12.48;;;7.00;;
65234;SDS011;51820;48.374;10.930;2023-10-19T14:51:03;20.83;;;7.88;;
65234;SDS011;51820;48.374;10.930;2023-10-19T14:53:33;14.87;;;7.37;;